MIM weather

Merimbula Airport
Merimbula, New South Wales, Australia

Public forecast

Using degrees Celsius for public forecast. Weather courtesy of forecast.io.

METAR (pilot weather report)

Retrieved 2019/07/22 18:00 UTC (13 minutes ago):

YMER 221800Z AUTO 21004KT 9999 // NCD 04/02 Q1011

TAF (pilot weather forecast)

Closest forecast is Canberra International Airport, 102.1 nm (189.1 km) NNW. Retrieved 2019/07/22 18:36 UTC (0 seconds ago):

TAF YSCB 221714Z 2218/2318 31005KT CAVOK BECMG 2300/2301 30018G28KT 9999 FEW030 FM230900 30014KT 9999 FEW030 FM231500 30016G26KT 9999 BKN030 PROB30 2218/2223 2000 BR RMK FM221800 MOD TURB BLW 5000FT TL222000 FM222000 MOD/SEV TURB BLW 5000FT TL231200 FM231200 SEV TURB BLW 5000FT T M01 03 10 14 Q 1015 1015 1015 1013